sensor_id;sensor_type;location;lat;lon;timestamp;pressure;altitude;pressure_sealevel;temperature;humidity
60897;BME280;46749;32.932;-117.130;2023-08-07T00:01:01;101009.00;;;22.38;59.36
60897;BME280;46749;32.932;-117.130;2023-08-07T00:03:28;101007.22;;;22.39;59.34
60897;BME280;46749;32.932;-117.130;2023-08-07T00:05:54;101001.91;;;22.40;59.33
60897;BME280;46749;32.932;-117.130;2023-08-07T00:08:21;100996.56;;;22.43;59.28
60897;BME280;46749;32.932;-117.130;2023-08-07T00:10:47;100999.22;;;22.46;59.34
60897;BME280;46749;32.932;-117.130;2023-08-07T00:13:14;100994.75;;;22.50;59.39
60897;BME280;46749;32.932;-117.130;2023-08-07T00:15:40;101004.47;;;22.51;59.90
60897;BME280;46749;32.932;-117.130;2023-08-07T00:18:06;100996.59;;;22.45;59.56
60897;BME280;46749;32.932;-117.130;2023-08-07T00:20:32;101001.94;;;22.39;59.49
60897;BME280;46749;32.932;-117.130;2023-08-07T00:22:58;101004.56;;;22.39;59.36
60897;BME280;46749;32.932;-117.130;2023-08-07T00:25:25;100998.38;;;22.40;59.37
60897;BME280;46749;32.932;-117.130;2023-08-07T00:27:51;101001.88;;;22.42;59.32
60897;BME280;46749;32.932;-117.130;2023-08-07T00:30:17;101001.03;;;22.40;59.49
60897;BME280;46749;32.932;-117.130;2023-08-07T00:32:43;100995.75;;;22.37;59.68
60897;BME280;46749;32.932;-117.130;2023-08-07T00:35:09;100998.41;;;22.35;59.95
60897;BME280;46749;32.932;-117.130;2023-08-07T00:37:36;101000.22;;;22.33;59.96
60897;BME280;46749;32.932;-117.130;2023-08-07T00:40:03;100996.69;;;22.32;59.68
60897;BME280;46749;32.932;-117.130;2023-08-07T00:42:29;100998.41;;;22.38;59.59
60897;BME280;46749;32.932;-117.130;2023-08-07T00:44:55;100994.81;;;22.42;59.46
60897;BME280;46749;32.932;-117.130;2023-08-07T00:47:21;100993.94;;;22.45;59.53
60897;BME280;46749;32.932;-117.130;2023-08-07T00:49:48;100986.88;;;22.45;59.38
60897;BME280;46749;32.932;-117.130;2023-08-07T00:52:14;100989.50;;;22.44;59.62
60897;BME280;46749;32.932;-117.130;2023-08-07T00:54:42;100984.25;;;22.41;59.27
60897;BME280;46749;32.932;-117.130;2023-08-07T00:57:12;100989.50;;;22.44;59.32
60897;BME280;46749;32.932;-117.130;2023-08-07T00:59:40;100993.91;;;22.48;59.33
60897;BME280;46749;32.932;-117.130;2023-08-07T01:02:08;100994.75;;;22.50;59.41
60897;BME280;46749;32.932;-117.130;2023-08-07T01:04:34;100988.56;;;22.52;59.54
60897;BME280;46749;32.932;-117.130;2023-08-07T01:07:00;100984.16;;;22.50;59.51
60897;BME280;46749;32.932;-117.130;2023-08-07T01:09:26;100988.59;;;22.48;59.05
60897;BME280;46749;32.932;-117.130;2023-08-07T01:14:37;100987.72;;;22.49;59.31
60897;BME280;46749;32.932;-117.130;2023-08-07T01:17:10;100989.44;;;22.53;59.08
60897;BME280;46749;32.932;-117.130;2023-08-07T01:19:37;100994.72;;;22.54;58.99
60897;BME280;46749;32.932;-117.130;2023-08-07T01:22:11;100993.00;;;22.52;59.25
60897;BME280;46749;32.932;-117.130;2023-08-07T01:24:39;100983.31;;;22.48;59.46
60897;BME280;46749;32.932;-117.130;2023-08-07T01:35:34;100975.31;;;22.54;59.47
60897;BME280;46749;32.932;-117.130;2023-08-07T01:38:02;100976.25;;;22.51;59.17
60897;BME280;46749;32.932;-117.130;2023-08-07T01:40:29;100984.22;;;22.47;59.58
60897;BME280;46749;32.932;-117.130;2023-08-07T01:42:56;100982.47;;;22.43;59.53
60897;BME280;46749;32.932;-117.130;2023-08-07T01:45:28;100977.16;;;22.47;59.82
60897;BME280;46749;32.932;-117.130;2023-08-07T01:47:55;100978.00;;;22.49;59.54
60897;BME280;46749;32.932;-117.130;2023-08-07T01:50:22;100985.06;;;22.52;59.32
60897;BME280;46749;32.932;-117.130;2023-08-07T01:52:49;100977.13;;;22.52;59.55
60897;BME280;46749;32.932;-117.130;2023-08-07T01:55:17;100982.41;;;22.49;59.51
60897;BME280;46749;32.932;-117.130;2023-08-07T01:57:44;100984.22;;;22.44;59.36
60897;BME280;46749;32.932;-117.130;2023-08-07T02:00:11;100983.34;;;22.45;59.71
60897;BME280;46749;32.932;-117.130;2023-08-07T02:02:37;100985.97;;;22.48;59.29
60897;BME280;46749;32.932;-117.130;2023-08-07T02:05:04;100983.31;;;22.51;59.64
60897;BME280;46749;32.932;-117.130;2023-08-07T02:07:31;100983.28;;;22.52;59.37
60897;BME280;46749;32.932;-117.130;2023-08-07T02:09:58;100985.06;;;22.50;59.00
60897;BME280;46749;32.932;-117.130;2023-08-07T02:12:24;100979.81;;;22.46;59.47
60897;BME280;46749;32.932;-117.130;2023-08-07T02:14:52;100984.25;;;22.42;59.56
60897;BME280;46749;32.932;-117.130;2023-08-07T02:17:20;100982.47;;;22.43;59.82
60897;BME280;46749;32.932;-117.130;2023-08-07T02:19:47;100987.75;;;22.46;59.85
60897;BME280;46749;32.932;-117.130;2023-08-07T02:22:13;100986.81;;;22.50;59.49
60897;BME280;46749;32.932;-117.130;2023-08-07T02:24:40;100984.13;;;22.56;59.25
60897;BME280;46749;32.932;-117.130;2023-08-07T02:27:06;100988.53;;;22.55;59.42
60897;BME280;46749;32.932;-117.130;2023-08-07T02:29:32;100992.94;;;22.55;59.43
60897;BME280;46749;32.932;-117.130;2023-08-07T02:32:01;100990.31;;;22.55;59.62
60897;BME280;46749;32.932;-117.130;2023-08-07T02:34:31;100987.59;;;22.61;59.78
60897;BME280;46749;32.932;-117.130;2023-08-07T02:36:58;100993.75;;;22.66;59.64
60897;BME280;46749;32.932;-117.130;2023-08-07T02:39:25;100991.97;;;22.70;59.42
60897;BME280;46749;32.932;-117.130;2023-08-07T02:41:51;100999.91;;;22.68;59.48
60897;BME280;46749;32.932;-117.130;2023-08-07T02:44:18;100998.16;;;22.66;59.44
60897;BME280;46749;32.932;-117.130;2023-08-07T02:46:46;101001.78;;;22.55;58.31
60897;BME280;46749;32.932;-117.130;2023-08-07T02:49:12;101000.00;;;22.56;58.86
60897;BME280;46749;32.932;-117.130;2023-08-07T02:51:38;101003.50;;;22.61;59.05
60897;BME280;46749;32.932;-117.130;2023-08-07T02:54:04;100998.16;;;22.67;59.20
60897;BME280;46749;32.932;-117.130;2023-08-07T02:56:30;100994.63;;;22.67;58.93
60897;BME280;46749;32.932;-117.130;2023-08-07T02:58:58;101006.09;;;22.66;59.07
60897;BME280;46749;32.932;-117.130;2023-08-07T03:01:24;101003.47;;;22.64;59.37
60897;BME280;46749;32.932;-117.130;2023-08-07T03:03:53;101006.97;;;22.66;59.44
60897;BME280;46749;32.932;-117.130;2023-08-07T03:06:19;101012.31;;;22.63;59.63
60897;BME280;46749;32.932;-117.130;2023-08-07T03:08:45;101007.94;;;22.59;59.59
60897;BME280;46749;32.932;-117.130;2023-08-07T03:11:11;101006.22;;;22.53;59.64
60897;BME280;46749;32.932;-117.130;2023-08-07T03:13:38;100998.31;;;22.49;59.84
60897;BME280;46749;32.932;-117.130;2023-08-07T03:16:05;101002.75;;;22.45;59.94
60897;BME280;46749;32.932;-117.130;2023-08-07T03:18:32;101004.53;;;22.42;60.09
60897;BME280;46749;32.932;-117.130;2023-08-07T03:20:59;101014.25;;;22.40;59.92
60897;BME280;46749;32.932;-117.130;2023-08-07T03:23:26;101015.16;;;22.37;60.09
60897;BME280;46749;32.932;-117.130;2023-08-07T03:26:07;101018.72;;;22.34;60.21
60897;BME280;46749;32.932;-117.130;2023-08-07T03:28:34;101009.03;;;22.33;59.79
60897;BME280;46749;32.932;-117.130;2023-08-07T03:31:01;101008.16;;;22.31;60.44
60897;BME280;46749;32.932;-117.130;2023-08-07T03:33:27;101016.09;;;22.31;60.21
60897;BME280;46749;32.932;-117.130;2023-08-07T03:35:54;101012.56;;;22.29;60.14
60897;BME280;46749;32.932;-117.130;2023-08-07T03:38:20;101006.41;;;22.27;60.39
60897;BME280;46749;32.932;-117.130;2023-08-07T03:40:46;101013.47;;;22.27;60.18
60897;BME280;46749;32.932;-117.130;2023-08-07T03:43:13;101010.84;;;22.25;60.09
60897;BME280;46749;32.932;-117.130;2023-08-07T03:45:39;101014.34;;;22.24;60.21
60897;BME280;46749;32.932;-117.130;2023-08-07T03:48:06;101013.47;;;22.24;59.92
60897;BME280;46749;32.932;-117.130;2023-08-07T03:50:32;101017.91;;;22.23;59.39
60897;BME280;46749;32.932;-117.130;2023-08-07T03:53:03;101017.03;;;22.23;59.74
60897;BME280;46749;32.932;-117.130;2023-08-07T03:55:30;101022.31;;;22.23;59.49
60897;BME280;46749;32.932;-117.130;2023-08-07T03:57:56;101023.22;;;22.22;59.76
60897;BME280;46749;32.932;-117.130;2023-08-07T04:00:23;101024.97;;;22.21;59.72
60897;BME280;46749;32.932;-117.130;2023-08-07T04:02:49;101024.13;;;22.19;59.70
60897;BME280;46749;32.932;-117.130;2023-08-07T04:05:15;101029.41;;;22.19;59.82
60897;BME280;46749;32.932;-117.130;2023-08-07T04:07:41;101040.00;;;22.19;59.72
60897;BME280;46749;32.932;-117.130;2023-08-07T04:10:08;101035.56;;;22.18;59.77
60897;BME280;46749;32.932;-117.130;2023-08-07T04:12:34;101038.22;;;22.17;59.73
60897;BME280;46749;32.932;-117.130;2023-08-07T04:15:00;101037.34;;;22.16;59.81
60897;BME280;46749;32.932;-117.130;2023-08-07T04:17:26;101040.00;;;22.15;60.08
60897;BME280;46749;32.932;-117.130;2023-08-07T04:19:53;101044.44;;;22.14;59.92
60897;BME280;46749;32.932;-117.130;2023-08-07T04:22:19;101055.00;;;22.14;59.82
60897;BME280;46749;32.932;-117.130;2023-08-07T04:24:45;101050.59;;;22.15;59.57
60897;BME280;46749;32.932;-117.130;2023-08-07T04:27:12;101053.25;;;22.13;59.84
60897;BME280;46749;32.932;-117.130;2023-08-07T04:29:38;101048.84;;;22.12;59.90
60897;BME280;46749;32.932;-117.130;2023-08-07T04:32:04;101054.13;;;22.11;60.07
60897;BME280;46749;32.932;-117.130;2023-08-07T04:34:31;101058.56;;;22.10;60.11
60897;BME280;46749;32.932;-117.130;2023-08-07T04:36:57;101061.19;;;22.08;60.08
60897;BME280;46749;32.932;-117.130;2023-08-07T04:39:23;101066.47;;;22.08;60.06
60897;BME280;46749;32.932;-117.130;2023-08-07T04:41:49;101064.72;;;22.07;60.36
60897;BME280;46749;32.932;-117.130;2023-08-07T04:44:16;101064.72;;;22.07;59.81
60897;BME280;46749;32.932;-117.130;2023-08-07T04:46:42;101062.97;;;22.06;60.20
60897;BME280;46749;32.932;-117.130;2023-08-07T04:49:08;101071.75;;;22.05;60.11
60897;BME280;46749;32.932;-117.130;2023-08-07T04:51:34;101067.38;;;22.04;59.91
60897;BME280;46749;32.932;-117.130;2023-08-07T04:54:00;101077.94;;;22.04;60.21
60897;BME280;46749;32.932;-117.130;2023-08-07T04:56:28;101077.94;;;22.04;60.02
60897;BME280;46749;32.932;-117.130;2023-08-07T04:58:56;101080.59;;;22.03;59.94
60897;BME280;46749;32.932;-117.130;2023-08-07T05:01:22;101078.84;;;22.03;60.10
60897;BME280;46749;32.932;-117.130;2023-08-07T05:03:48;101081.50;;;22.02;59.99
60897;BME280;46749;32.932;-117.130;2023-08-07T05:06:15;101078.84;;;22.02;60.18
60897;BME280;46749;32.932;-117.130;2023-08-07T05:08:41;101082.38;;;22.01;60.04
60897;BME280;46749;32.932;-117.130;2023-08-07T05:11:07;101078.88;;;22.00;59.84
60897;BME280;46749;32.932;-117.130;2023-08-07T05:13:33;101076.22;;;22.00;60.00
60897;BME280;46749;32.932;-117.130;2023-08-07T05:15:59;101078.88;;;21.97;60.22
60897;BME280;46749;32.932;-117.130;2023-08-07T05:18:25;101070.06;;;21.97;60.13
60897;BME280;46749;32.932;-117.130;2023-08-07T05:20:52;101074.44;;;21.98;60.13
60897;BME280;46749;32.932;-117.130;2023-08-07T05:23:18;101072.72;;;21.95;60.27
60897;BME280;46749;32.932;-117.130;2023-08-07T05:25:47;101076.22;;;21.96;60.10
60897;BME280;46749;32.932;-117.130;2023-08-07T05:28:13;101071.84;;;21.95;60.45
60897;BME280;46749;32.932;-117.130;2023-08-07T05:30:40;101072.72;;;21.94;60.08
60897;BME280;46749;32.932;-117.130;2023-08-07T05:33:06;101074.47;;;21.93;60.19
60897;BME280;46749;32.932;-117.130;2023-08-07T05:35:32;101076.22;;;21.93;60.25
60897;BME280;46749;32.932;-117.130;2023-08-07T05:37:58;101069.19;;;21.92;60.20
60897;BME280;46749;32.932;-117.130;2023-08-07T05:40:24;101068.31;;;21.91;60.26
60897;BME280;46749;32.932;-117.130;2023-08-07T05:42:50;101071.84;;;21.92;60.10
60897;BME280;46749;32.932;-117.130;2023-08-07T05:45:16;101063.91;;;21.92;59.99
60897;BME280;46749;32.932;-117.130;2023-08-07T05:47:43;101060.41;;;21.90;60.18
60897;BME280;46749;32.932;-117.130;2023-08-07T05:50:09;101063.03;;;21.90;60.04
60897;BME280;46749;32.932;-117.130;2023-08-07T05:52:35;101069.19;;;21.87;59.89
60897;BME280;46749;32.932;-117.130;2023-08-07T05:55:02;101072.75;;;21.88;60.11
60897;BME280;46749;32.932;-117.130;2023-08-07T05:57:28;101070.13;;;21.88;59.89
60897;BME280;46749;32.932;-117.130;2023-08-07T05:59:54;101070.97;;;21.87;60.22
60897;BME280;46749;32.932;-117.130;2023-08-07T06:02:20;101070.09;;;21.86;60.05
60897;BME280;46749;32.932;-117.130;2023-08-07T06:04:46;101062.19;;;21.85;60.33
60897;BME280;46749;32.932;-117.130;2023-08-07T06:07:14;101059.53;;;21.85;60.35
60897;BME280;46749;32.932;-117.130;2023-08-07T06:09:40;101066.59;;;21.84;59.89
60897;BME280;46749;32.932;-117.130;2023-08-07T06:12:06;101063.97;;;21.83;60.21
60897;BME280;46749;32.932;-117.130;2023-08-07T06:14:33;101067.50;;;21.81;60.05
60897;BME280;46749;32.932;-117.130;2023-08-07T06:16:59;101070.13;;;21.81;60.31
60897;BME280;46749;32.932;-117.130;2023-08-07T06:19:27;101065.72;;;21.80;60.21
60897;BME280;46749;32.932;-117.130;2023-08-07T06:21:54;101064.84;;;21.80;60.46
60897;BME280;46749;32.932;-117.130;2023-08-07T06:24:20;101064.84;;;21.78;60.04
60897;BME280;46749;32.932;-117.130;2023-08-07T06:26:46;101065.75;;;21.77;60.27
60897;BME280;46749;32.932;-117.130;2023-08-07T06:29:12;101067.50;;;21.77;60.10
60897;BME280;46749;32.932;-117.130;2023-08-07T06:31:39;101070.13;;;21.78;60.34
60897;BME280;46749;32.932;-117.130;2023-08-07T06:34:05;101071.03;;;21.77;60.17
60897;BME280;46749;32.932;-117.130;2023-08-07T06:36:31;101072.78;;;21.77;60.20
60897;BME280;46749;32.932;-117.130;2023-08-07T06:38:58;101069.28;;;21.76;60.13
60897;BME280;46749;32.932;-117.130;2023-08-07T06:41:24;101077.22;;;21.75;60.36
60897;BME280;46749;32.932;-117.130;2023-08-07T06:43:50;101076.31;;;21.74;60.19
60897;BME280;46749;32.932;-117.130;2023-08-07T06:46:17;101077.19;;;21.73;60.13
60897;BME280;46749;32.932;-117.130;2023-08-07T06:48:44;101078.09;;;21.72;60.15
60897;BME280;46749;32.932;-117.130;2023-08-07T06:51:10;101084.25;;;21.73;60.20
60897;BME280;46749;32.932;-117.130;2023-08-07T06:53:36;101084.25;;;21.73;60.37
60897;BME280;46749;32.932;-117.130;2023-08-07T06:56:02;101074.59;;;21.70;60.22
60897;BME280;46749;32.932;-117.130;2023-08-07T06:58:29;101077.22;;;21.70;59.96
60897;BME280;46749;32.932;-117.130;2023-08-07T07:00:55;101077.22;;;21.70;60.10
60897;BME280;46749;32.932;-117.130;2023-08-07T07:03:21;101084.28;;;21.70;60.04
60897;BME280;46749;32.932;-117.130;2023-08-07T07:05:49;101078.13;;;21.69;60.19
60897;BME280;46749;32.932;-117.130;2023-08-07T07:08:15;101089.56;;;21.68;60.11
60897;BME280;46749;32.932;-117.130;2023-08-07T07:10:41;101082.50;;;21.67;60.23
60897;BME280;46749;32.932;-117.130;2023-08-07T07:13:08;101087.81;;;21.66;60.37
60897;BME280;46749;32.932;-117.130;2023-08-07T07:15:35;101086.94;;;21.65;60.14
60897;BME280;46749;32.932;-117.130;2023-08-07T07:18:01;101086.94;;;21.65;60.39
60897;BME280;46749;32.932;-117.130;2023-08-07T07:20:28;101097.53;;;21.64;60.14
60897;BME280;46749;32.932;-117.130;2023-08-07T07:22:54;101094.00;;;21.63;60.07
60897;BME280;46749;32.932;-117.130;2023-08-07T07:25:20;101096.63;;;21.63;60.08
60897;BME280;46749;32.932;-117.130;2023-08-07T07:27:47;101100.13;;;21.62;60.07
60897;BME280;46749;32.932;-117.130;2023-08-07T07:30:13;101093.97;;;21.62;59.76
60897;BME280;46749;32.932;-117.130;2023-08-07T07:32:39;101094.84;;;21.62;60.25
60897;BME280;46749;32.932;-117.130;2023-08-07T07:35:05;101090.47;;;21.61;60.10
60897;BME280;46749;32.932;-117.130;2023-08-07T07:37:32;101090.47;;;21.61;60.13
60897;BME280;46749;32.932;-117.130;2023-08-07T07:39:58;101084.31;;;21.59;60.12
60897;BME280;46749;32.932;-117.130;2023-08-07T07:42:24;101086.06;;;21.59;59.83
60897;BME280;46749;32.932;-117.130;2023-08-07T07:44:51;101087.84;;;21.58;60.00
60897;BME280;46749;32.932;-117.130;2023-08-07T07:47:17;101086.09;;;21.57;60.08
60897;BME280;46749;32.932;-117.130;2023-08-07T07:49:45;101085.19;;;21.58;60.00
60897;BME280;46749;32.932;-117.130;2023-08-07T07:52:15;101086.09;;;21.57;60.20
60897;BME280;46749;32.932;-117.130;2023-08-07T07:54:41;101085.19;;;21.55;60.15
60897;BME280;46749;32.932;-117.130;2023-08-07T07:57:07;101085.19;;;21.55;60.10
60897;BME280;46749;32.932;-117.130;2023-08-07T07:59:34;101078.16;;;21.54;60.11
60897;BME280;46749;32.932;-117.130;2023-08-07T08:02:00;101077.28;;;21.53;60.00
60897;BME280;46749;32.932;-117.130;2023-08-07T08:04:26;101081.69;;;21.53;60.06
60897;BME280;46749;32.932;-117.130;2023-08-07T08:06:53;101090.50;;;21.52;60.11
60897;BME280;46749;32.932;-117.130;2023-08-07T08:09:19;101073.75;;;21.51;60.05
60897;BME280;46749;32.932;-117.130;2023-08-07T08:11:47;101076.41;;;21.50;60.24
60897;BME280;46749;32.932;-117.130;2023-08-07T08:14:13;101076.41;;;21.50;60.20
60897;BME280;46749;32.932;-117.130;2023-08-07T08:16:39;101070.22;;;21.49;60.11
60897;BME280;46749;32.932;-117.130;2023-08-07T08:19:06;101070.22;;;21.49;60.02
60897;BME280;46749;32.932;-117.130;2023-08-07T08:21:34;101066.72;;;21.49;60.01
60897;BME280;46749;32.932;-117.130;2023-08-07T08:24:00;101067.59;;;21.48;59.96
60897;BME280;46749;32.932;-117.130;2023-08-07T08:26:26;101064.06;;;21.47;60.04
60897;BME280;46749;32.932;-117.130;2023-08-07T08:28:53;101061.44;;;21.47;59.85
60897;BME280;46749;32.932;-117.130;2023-08-07T08:31:19;101058.81;;;21.46;60.17
60897;BME280;46749;32.932;-117.130;2023-08-07T08:33:47;101063.22;;;21.45;60.22
60897;BME280;46749;32.932;-117.130;2023-08-07T08:36:13;101065.88;;;21.44;60.08
60897;BME280;46749;32.932;-117.130;2023-08-07T08:38:40;101058.78;;;21.43;60.06
60897;BME280;46749;32.932;-117.130;2023-08-07T08:41:07;101064.09;;;21.43;60.00
60897;BME280;46749;32.932;-117.130;2023-08-07T08:43:35;101057.94;;;21.41;60.10
60897;BME280;46749;32.932;-117.130;2023-08-07T08:46:04;101059.69;;;21.40;60.13
60897;BME280;46749;32.932;-117.130;2023-08-07T08:48:34;101071.16;;;21.39;59.88
60897;BME280;46749;32.932;-117.130;2023-08-07T08:51:02;101064.13;;;21.38;60.13
60897;BME280;46749;32.932;-117.130;2023-08-07T08:53:30;101071.16;;;21.38;60.03
60897;BME280;46749;32.932;-117.130;2023-08-07T08:55:57;101062.38;;;21.37;60.04
60897;BME280;46749;32.932;-117.130;2023-08-07T08:58:23;101057.06;;;21.36;60.02
60897;BME280;46749;32.932;-117.130;2023-08-07T09:00:50;101055.28;;;21.36;60.11
60897;BME280;46749;32.932;-117.130;2023-08-07T09:03:18;101055.31;;;21.35;60.05
60897;BME280;46749;32.932;-117.130;2023-08-07T09:05:46;101053.56;;;21.34;60.18
60897;BME280;46749;32.932;-117.130;2023-08-07T09:08:13;101053.56;;;21.34;60.12
60897;BME280;46749;32.932;-117.130;2023-08-07T09:10:40;101055.31;;;21.33;60.18
60897;BME280;46749;32.932;-117.130;2023-08-07T09:13:11;101056.19;;;21.31;60.18
60897;BME280;46749;32.932;-117.130;2023-08-07T09:15:39;101057.09;;;21.33;60.35
60897;BME280;46749;32.932;-117.130;2023-08-07T09:18:06;101053.53;;;21.31;60.12
60897;BME280;46749;32.932;-117.130;2023-08-07T09:20:37;101057.94;;;21.30;60.08
60897;BME280;46749;32.932;-117.130;2023-08-07T09:23:06;101045.63;;;21.29;60.14
60897;BME280;46749;32.932;-117.130;2023-08-07T09:25:34;101041.19;;;21.28;60.06
60897;BME280;46749;32.932;-117.130;2023-08-07T09:28:04;101040.31;;;21.27;60.13
60897;BME280;46749;32.932;-117.130;2023-08-07T09:30:32;101042.97;;;21.27;60.05
60897;BME280;46749;32.932;-117.130;2023-08-07T09:33:02;101042.97;;;21.26;59.88
60897;BME280;46749;32.932;-117.130;2023-08-07T09:35:29;101043.88;;;21.25;60.21
60897;BME280;46749;32.932;-117.130;2023-08-07T09:37:57;101044.75;;;21.25;60.35
60897;BME280;46749;32.932;-117.130;2023-08-07T09:40:23;101038.56;;;21.23;60.14
60897;BME280;46749;32.932;-117.130;2023-08-07T09:42:54;101032.41;;;21.23;59.98
60897;BME280;46749;32.932;-117.130;2023-08-07T09:45:26;101036.81;;;21.22;59.97
60897;BME280;46749;32.932;-117.130;2023-08-07T09:50:23;101032.41;;;21.21;59.82
60897;BME280;46749;32.932;-117.130;2023-08-07T09:52:49;101025.38;;;21.20;59.88
60897;BME280;46749;32.932;-117.130;2023-08-07T09:55:16;101028.03;;;21.20;60.03
60897;BME280;46749;32.932;-117.130;2023-08-07T09:57:45;101025.38;;;21.20;59.96
60897;BME280;46749;32.932;-117.130;2023-08-07T10:00:14;101016.59;;;21.18;60.06
60897;BME280;46749;32.932;-117.130;2023-08-07T10:02:44;101013.03;;;21.18;60.04
60897;BME280;46749;32.932;-117.130;2023-08-07T10:05:11;101014.81;;;21.17;59.95
60897;BME280;46749;32.932;-117.130;2023-08-07T10:07:39;101022.75;;;21.16;59.86
60897;BME280;46749;32.932;-117.130;2023-08-07T10:10:06;101021.88;;;21.15;60.01
60897;BME280;46749;32.932;-117.130;2023-08-07T10:12:33;101014.81;;;21.14;59.79
60897;BME280;46749;32.932;-117.130;2023-08-07T10:15:00;101020.09;;;21.14;60.05
60897;BME280;46749;32.932;-117.130;2023-08-07T10:17:27;101024.53;;;21.14;59.69
60897;BME280;46749;32.932;-117.130;2023-08-07T10:19:53;101025.41;;;21.13;60.02
60897;BME280;46749;32.932;-117.130;2023-08-07T10:22:20;101027.16;;;21.12;60.13
60897;BME280;46749;32.932;-117.130;2023-08-07T10:24:50;101018.34;;;21.10;59.81
60897;BME280;46749;32.932;-117.130;2023-08-07T10:27:20;101020.13;;;21.10;60.27
60897;BME280;46749;32.932;-117.130;2023-08-07T10:29:48;101024.53;;;21.09;60.08
60897;BME280;46749;32.932;-117.130;2023-08-07T10:32:20;101037.72;;;21.08;59.96
60897;BME280;46749;32.932;-117.130;2023-08-07T10:34:49;101030.69;;;21.08;60.06
60897;BME280;46749;32.932;-117.130;2023-08-07T10:40:08;101032.47;;;21.06;59.95
60897;BME280;46749;32.932;-117.130;2023-08-07T10:45:27;101035.97;;;21.05;59.90
60897;BME280;46749;32.932;-117.130;2023-08-07T10:48:06;101043.00;;;21.03;60.21
60897;BME280;46749;32.932;-117.130;2023-08-07T10:50:50;101047.41;;;21.02;59.86
60897;BME280;46749;32.932;-117.130;2023-08-07T10:53:43;101051.81;;;21.02;59.98
60897;BME280;46749;32.932;-117.130;2023-08-07T10:56:16;101043.91;;;21.00;59.90
60897;BME280;46749;32.932;-117.130;2023-08-07T10:58:49;101046.56;;;21.00;59.98
60897;BME280;46749;32.932;-117.130;2023-08-07T11:03:58;101040.38;;;20.98;60.09
60897;BME280;46749;32.932;-117.130;2023-08-07T11:06:34;101038.63;;;20.97;60.01
60897;BME280;46749;32.932;-117.130;2023-08-07T11:09:00;101037.75;;;20.97;60.09
60897;BME280;46749;32.932;-117.130;2023-08-07T11:11:29;101035.97;;;20.99;59.53
60897;BME280;46749;32.932;-117.130;2023-08-07T11:13:55;101036.00;;;20.96;59.86
60897;BME280;46749;32.932;-117.130;2023-08-07T11:16:22;101028.94;;;20.95;59.84
60897;BME280;46749;32.932;-117.130;2023-08-07T11:18:49;101040.41;;;20.94;59.93
60897;BME280;46749;32.932;-117.130;2023-08-07T11:21:16;101038.63;;;20.93;59.85
60897;BME280;46749;32.932;-117.130;2023-08-07T11:23:42;101043.91;;;20.91;60.00
60897;BME280;46749;32.932;-117.130;2023-08-07T11:26:10;101036.88;;;20.90;60.08
60897;BME280;46749;32.932;-117.130;2023-08-07T11:28:36;101043.03;;;20.89;59.58
60897;BME280;46749;32.932;-117.130;2023-08-07T11:31:03;101032.47;;;20.89;59.76
60897;BME280;46749;32.932;-117.130;2023-08-07T11:33:30;101035.13;;;20.89;59.81
60897;BME280;46749;32.932;-117.130;2023-08-07T11:35:56;101030.72;;;20.87;59.91
60897;BME280;46749;32.932;-117.130;2023-08-07T11:38:33;101024.53;;;20.86;60.01
60897;BME280;46749;32.932;-117.130;2023-08-07T11:41:01;101026.31;;;20.87;59.62
60897;BME280;46749;32.932;-117.130;2023-08-07T11:43:31;101017.50;;;20.85;59.84
60897;BME280;46749;32.932;-117.130;2023-08-07T11:45:59;100994.63;;;20.86;59.73
60897;BME280;46749;32.932;-117.130;2023-08-07T11:48:27;100990.22;;;20.85;59.85
60897;BME280;46749;32.932;-117.130;2023-08-07T11:50:55;100995.50;;;20.85;59.52
60897;BME280;46749;32.932;-117.130;2023-08-07T11:53:27;100989.38;;;20.81;59.70
60897;BME280;46749;32.932;-117.130;2023-08-07T11:55:56;100980.56;;;20.82;59.85
60897;BME280;46749;32.932;-117.130;2023-08-07T11:58:25;100987.59;;;20.80;59.71
60897;BME280;46749;32.932;-117.130;2023-08-07T12:00:52;100992.00;;;20.80;59.87
60897;BME280;46749;32.932;-117.130;2023-08-07T12:03:28;100999.91;;;20.78;59.86
60897;BME280;46749;32.932;-117.130;2023-08-07T12:05:58;101005.19;;;20.78;59.98
60897;BME280;46749;32.932;-117.130;2023-08-07T12:08:30;101014.00;;;20.77;59.75
60897;BME280;46749;32.932;-117.130;2023-08-07T12:10:57;101003.44;;;20.77;59.68
60897;BME280;46749;32.932;-117.130;2023-08-07T12:13:25;101011.38;;;20.76;59.86
60897;BME280;46749;32.932;-117.130;2023-08-07T12:15:56;101008.72;;;20.76;59.86
60897;BME280;46749;32.932;-117.130;2023-08-07T12:18:24;101002.56;;;20.73;60.12
60897;BME280;46749;32.932;-117.130;2023-08-07T12:20:52;101012.25;;;20.73;59.96
60897;BME280;46749;32.932;-117.130;2023-08-07T12:23:22;101002.56;;;20.72;59.85
60897;BME280;46749;32.932;-117.130;2023-08-07T12:25:48;101002.56;;;20.72;60.10
60897;BME280;46749;32.932;-117.130;2023-08-07T12:28:15;101005.22;;;20.72;59.90
60897;BME280;46749;32.932;-117.130;2023-08-07T12:30:45;101002.56;;;20.70;59.66
60897;BME280;46749;32.932;-117.130;2023-08-07T12:33:12;101006.09;;;20.69;59.87
60897;BME280;46749;32.932;-117.130;2023-08-07T12:35:39;101013.13;;;20.67;59.92
60897;BME280;46749;32.932;-117.130;2023-08-07T12:38:06;101013.13;;;20.67;59.99
60897;BME280;46749;32.932;-117.130;2023-08-07T12:40:32;101015.75;;;20.67;60.02
60897;BME280;46749;32.932;-117.130;2023-08-07T12:43:02;101019.28;;;20.66;59.90